Time;durP1;ratioP1;P1;durP2;ratioP2;P2;SDS_P1;SDS_P2;PMS_P1;PMS_P2;Temp;Humidity;BMP_temperature;BMP_pressure;BME280_temperature;BME280_humidity;BME280_pressure;Samples;Min_cycle;Max_cycle;Signal;HPM_P1;HPM_P2
2021/12/13 00:01:57;;;;;;;6.10;3.37;;;5.40;99.90;;;;;;5066315;28;20209;-60
2021/12/13 00:04:27;;;;;;;5.77;3.80;;;5.40;99.90;;;;;;5066055;28;20212;-60
2021/12/13 00:06:57;;;;;;;6.67;4.20;;;5.40;99.90;;;;;;5066537;28;20190;-60
2021/12/13 00:09:27;;;;;;;5.40;3.30;;;5.30;99.90;;;;;;5066212;28;20216;-60
2021/12/13 00:11:59;;;;;;;7.57;4.67;;;5.20;99.90;;;;;;5065409;28;20212;-60
2021/12/13 00:14:33;;;;;;;8.07;4.07;;;5.20;99.90;;;;;;5066661;28;20213;-60
2021/12/13 00:17:04;;;;;;;5.60;3.53;;;5.20;99.90;;;;;;5066176;28;20208;-60
2021/12/13 00:19:38;;;;;;;8.87;4.67;;;5.20;99.90;;;;;;5065701;28;20205;-60
2021/12/13 00:22:09;;;;;;;8.87;4.37;;;5.10;99.90;;;;;;5065780;28;20207;-60
2021/12/13 00:24:40;;;;;;;7.13;3.93;;;5.20;99.90;;;;;;5065772;28;20186;-60
2021/12/13 00:27:10;;;;;;;13.47;4.50;;;5.20;99.90;;;;;;5064626;28;20187;-60
2021/12/13 00:29:46;;;;;;;5.63;4.03;;;5.20;99.90;;;;;;5065896;28;20210;-60
2021/12/13 00:32:19;;;;;;;8.27;3.60;;;5.30;99.90;;;;;;5065678;28;20216;-60
2021/12/13 00:34:50;;;;;;;7.40;3.83;;;5.30;99.90;;;;;;5065370;28;20229;-60
2021/12/13 00:37:25;;;;;;;9.90;4.10;;;5.30;99.90;;;;;;5066092;28;20192;-60
2021/12/13 00:39:57;;;;;;;6.27;4.17;;;5.20;99.90;;;;;;5065668;28;20659;-60
2021/12/13 00:42:29;;;;;;;5.90;3.63;;;5.20;99.90;;;;;;5064910;28;20646;-60
2021/12/13 00:44:59;;;;;;;5.57;4.20;;;5.20;99.90;;;;;;5065841;28;20196;-60
2021/12/13 00:47:29;;;;;;;7.67;4.43;;;5.10;99.90;;;;;;5065596;28;20214;-60
2021/12/13 00:50:06;;;;;;;6.17;3.57;;;5.20;99.90;;;;;;5065188;28;20201;-60
2021/12/13 00:52:34;;;;;;;5.03;3.33;;;5.10;99.90;;;;;;5065220;28;20244;-60
2021/12/13 00:55:01;;;;;;;7.10;3.63;;;5.10;99.90;;;;;;5065192;28;20202;-60
2021/12/13 00:57:41;;;;;;;7.07;3.47;;;5.10;99.90;;;;;;5064790;28;20288;-60
2021/12/13 01:00:15;;;;;;;6.83;3.77;;;5.20;99.90;;;;;;5065166;28;20273;-60
2021/12/13 01:02:46;;;;;;;9.90;4.87;;;5.20;99.90;;;;;;5065302;28;20182;-60
2021/12/13 01:05:23;;;;;;;6.23;3.67;;;5.20;99.90;;;;;;5065118;28;20205;-60
2021/12/13 01:08:04;;;;;;;7.17;3.87;;;5.20;99.90;;;;;;5065207;28;20191;-60
2021/12/13 01:11:11;;;;;;;10.33;4.20;;;5.20;99.90;;;;;;5065139;28;20269;-60
2021/12/13 01:13:54;;;;;;;5.73;2.93;;;5.20;99.90;;;;;;5064538;28;20210;-60
2021/12/13 01:16:37;;;;;;;7.27;3.47;;;5.30;99.90;;;;;;5065121;28;20813;-60
2021/12/13 01:19:28;;;;;;;5.13;4.20;;;5.30;99.90;;;;;;5064762;28;20210;-60
2021/12/13 01:22:22;;;;;;;7.70;4.00;;;5.30;99.90;;;;;;5065102;28;20208;-60
2021/12/13 01:25:15;;;;;;;6.50;3.83;;;5.20;99.90;;;;;;5064699;28;20196;-60
2021/12/13 01:27:44;;;;;;;5.80;3.57;;;5.20;99.90;;;;;;5064333;28;20256;-60
2021/12/13 01:30:13;;;;;;;8.93;3.87;;;5.30;99.90;;;;;;5064624;28;20240;-60
2021/12/13 01:32:44;;;;;;;8.00;4.33;;;5.20;99.90;;;;;;5064956;28;20311;-60
2021/12/13 01:35:16;;;;;;;6.53;3.10;;;5.30;99.90;;;;;;5064437;28;20269;-60
2021/12/13 01:37:50;;;;;;;10.83;5.33;;;5.20;99.90;;;;;;5064712;28;20185;-60
2021/12/13 01:40:18;;;;;;;10.67;5.87;;;5.30;99.90;;;;;;5064173;28;20205;-60
2021/12/13 01:42:45;;;;;;;13.63;6.13;;;5.30;99.90;;;;;;5064025;28;20565;-60
2021/12/13 01:45:15;;;;;;;11.57;6.87;;;5.30;99.90;;;;;;5064907;28;20201;-60
2021/12/13 01:47:45;;;;;;;12.47;6.07;;;5.30;99.90;;;;;;5064961;28;20201;-60
2021/12/13 01:50:16;;;;;;;9.17;5.63;;;5.30;99.90;;;;;;5064071;28;20268;-60
2021/12/13 01:52:46;;;;;;;10.50;5.23;;;5.30;99.90;;;;;;5064393;28;20268;-60
2021/12/13 01:55:16;;;;;;;5.90;3.67;;;5.30;99.90;;;;;;5064218;28;20551;-60
2021/12/13 01:57:49;;;;;;;7.60;4.03;;;5.30;99.90;;;;;;5064116;28;20216;-60
2021/12/13 02:00:31;;;;;;;5.23;3.47;;;5.30;99.90;;;;;;5064168;28;20227;-60
2021/12/13 02:02:58;;;;;;;6.90;3.97;;;5.30;99.90;;;;;;5064324;28;20646;-60
2021/12/13 02:05:29;;;;;;;8.07;4.50;;;5.40;99.90;;;;;;5064653;28;20554;-60
2021/12/13 02:08:06;;;;;;;5.07;3.20;;;5.40;99.90;;;;;;5064677;28;20315;-60
2021/12/13 02:10:36;;;;;;;7.10;3.73;;;5.40;99.90;;;;;;5064419;28;20209;-60
2021/12/13 02:13:06;;;;;;;4.57;3.57;;;5.40;99.90;;;;;;5063789;28;20206;-60
2021/12/13 02:18:23;;;;;;;5.40;3.93;;;5.40;99.90;;;;;;5063926;28;20224;-60
2021/12/13 02:20:57;;;;;;;9.13;4.17;;;5.40;99.90;;;;;;5064000;28;20296;-60
2021/12/13 02:23:26;;;;;;;8.50;4.50;;;5.40;99.90;;;;;;5063921;28;20194;-60
2021/12/13 02:25:55;;;;;;;11.77;4.83;;;5.40;99.90;;;;;;5064360;28;20202;-60
2021/12/13 02:28:24;;;;;;;9.40;4.57;;;5.40;99.90;;;;;;5063719;28;20204;-60
2021/12/13 02:30:54;;;;;;;7.00;4.40;;;5.50;99.90;;;;;;5064162;28;20336;-60
2021/12/13 02:33:24;;;;;;;4.57;3.07;;;5.50;99.90;;;;;;5063421;28;20221;-60
2021/12/13 02:35:58;;;;;;;5.00;3.30;;;5.50;99.90;;;;;;5064418;28;20205;-60
2021/12/13 02:38:28;;;;;;;4.83;3.13;;;5.50;99.90;;;;;;5064292;28;20205;-60
2021/12/13 02:40:55;;;;;;;5.87;3.73;;;5.50;99.90;;;;;;5064155;28;20296;-60
2021/12/13 02:43:26;;;;;;;4.80;3.27;;;5.40;99.90;;;;;;5063459;28;20567;-60
2021/12/13 02:45:56;;;;;;;6.40;4.10;;;5.40;99.90;;;;;;5064177;28;20201;-60
2021/12/13 02:48:26;;;;;;;7.30;3.97;;;5.50;99.90;;;;;;5063611;28;20210;-60
2021/12/13 02:50:56;;;;;;;7.33;4.87;;;5.40;99.90;;;;;;5067260;28;20206;-61
2021/12/13 02:53:29;;;;;;;7.03;3.87;;;5.40;99.90;;;;;;5067382;28;20226;-60
2021/12/13 02:55:56;;;;;;;7.57;3.70;;;5.40;99.90;;;;;;5068079;28;20206;-60
2021/12/13 02:58:26;;;;;;;8.47;4.50;;;5.40;99.90;;;;;;5067164;28;20206;-60
2021/12/13 03:00:58;;;;;;;5.30;4.40;;;5.40;99.90;;;;;;5067182;28;20259;-60
2021/12/13 03:03:38;;;;;;;6.77;4.17;;;5.40;99.90;;;;;;5067310;28;20206;-60
2021/12/13 03:06:08;;;;;;;6.33;4.27;;;5.40;99.90;;;;;;5067884;28;20368;-60
2021/12/13 03:08:40;;;;;;;5.70;4.23;;;5.40;99.90;;;;;;5067694;28;20205;-60
2021/12/13 03:11:12;;;;;;;6.40;3.87;;;5.40;99.90;;;;;;5067294;28;20209;-60
2021/12/13 03:13:39;;;;;;;11.53;4.73;;;5.30;99.90;;;;;;5066970;28;20292;-60
2021/12/13 03:16:15;;;;;;;10.90;4.57;;;5.40;99.90;;;;;;5067413;28;20357;-60
2021/12/13 03:18:47;;;;;;;8.07;4.03;;;5.40;99.90;;;;;;5066947;28;20220;-60
2021/12/13 03:21:52;;;;;;;7.70;4.20;;;5.40;99.90;;;;;;5067104;28;20212;-60
2021/12/13 03:24:41;;;;;;;8.50;4.03;;;5.40;99.90;;;;;;5063559;28;20201;-60
2021/12/13 03:27:42;;;;;;;7.73;3.90;;;5.40;99.90;;;;;;5025958;28;20273;-60
2021/12/13 03:30:11;;;;;;;3.47;2.63;;;5.40;99.90;;;;;;5052714;28;20265;-60
2021/12/13 03:32:43;;;;;;;3.97;2.80;;;5.50;99.90;;;;;;5066857;28;20293;-60
2021/12/13 03:35:16;;;;;;;5.67;3.50;;;5.40;99.90;;;;;;5066433;28;20580;-60
2021/12/13 03:37:45;;;;;;;3.80;2.90;;;5.50;99.90;;;;;;5067165;28;20273;-60
2021/12/13 03:40:18;;;;;;;4.67;3.23;;;5.50;99.90;;;;;;5066680;28;20213;-60
2021/12/13 03:42:50;;;;;;;5.27;3.13;;;5.50;99.90;;;;;;5066159;28;20698;-60
2021/12/13 03:45:20;;;;;;;4.37;3.00;;;5.40;99.90;;;;;;5067198;28;20290;-60
2021/12/13 03:47:51;;;;;;;3.63;2.70;;;5.40;99.90;;;;;;5066814;28;20186;-61
2021/12/13 03:50:21;;;;;;;5.73;3.03;;;5.40;99.90;;;;;;5065891;28;20282;-60
2021/12/13 03:52:53;;;;;;;4.57;2.37;;;5.40;99.90;;;;;;5066496;28;20287;-60
2021/12/13 03:55:24;;;;;;;2.20;1.57;;;5.40;99.90;;;;;;5066193;28;20231;-60
2021/12/13 03:57:53;;;;;;;2.40;1.70;;;5.40;99.90;;;;;;5066230;28;20254;-60
2021/12/13 04:00:25;;;;;;;1.67;1.30;;;5.40;99.90;;;;;;5066028;28;20220;-60
2021/12/13 04:02:54;;;;;;;2.27;1.20;;;5.40;99.90;;;;;;5066678;28;20202;-60
2021/12/13 04:05:28;;;;;;;1.37;1.27;;;5.40;99.90;;;;;;5066149;28;20202;-60
2021/12/13 04:07:58;;;;;;;2.10;1.77;;;5.40;99.90;;;;;;5066582;28;20249;-60
2021/12/13 04:10:30;;;;;;;2.60;2.20;;;5.50;99.90;;;;;;5066105;28;20212;-60
2021/12/13 04:13:00;;;;;;;1.63;1.27;;;5.50;99.90;;;;;;5065808;28;20249;-60
2021/12/13 04:15:46;;;;;;;1.53;1.43;;;5.50;99.90;;;;;;5066505;28;20305;-60
2021/12/13 04:18:29;;;;;;;2.97;2.20;;;5.50;99.90;;;;;;5065856;28;20297;-60
2021/12/13 04:20:59;;;;;;;3.17;1.53;;;5.50;99.90;;;;;;5065865;28;20213;-60
2021/12/13 04:23:27;;;;;;;2.27;1.53;;;5.50;99.90;;;;;;5065780;28;20186;-60
2021/12/13 04:25:59;;;;;;;2.03;1.60;;;5.50;99.90;;;;;;5066238;28;20201;-60
2021/12/13 04:28:34;;;;;;;2.17;1.40;;;5.50;99.90;;;;;;5065347;28;20514;-60
2021/12/13 04:31:06;;;;;;;8.03;3.23;;;5.50;99.90;;;;;;5065632;28;20205;-60
2021/12/13 04:33:37;;;;;;;3.03;2.27;;;5.50;99.90;;;;;;5065318;28;20685;-60
2021/12/13 04:36:08;;;;;;;8.83;3.17;;;5.60;99.90;;;;;;5065894;28;20713;-60
2021/12/13 04:38:47;;;;;;;3.07;2.37;;;5.60;99.90;;;;;;5065894;28;20271;-60
2021/12/13 04:41:22;;;;;;;3.67;2.33;;;5.60;99.90;;;;;;5065656;28;20263;-60
2021/12/13 04:43:49;;;;;;;4.97;2.67;;;5.60;99.90;;;;;;5065956;28;20245;-60
2021/12/13 04:46:19;;;;;;;7.33;3.40;;;5.60;99.90;;;;;;5065670;28;20202;-60
2021/12/13 04:48:47;;;;;;;6.97;3.53;;;5.60;99.90;;;;;;5065331;28;20676;-60
2021/12/13 04:51:17;;;;;;;7.93;3.27;;;5.60;99.90;;;;;;5064708;28;20994;-60
2021/12/13 04:53:46;;;;;;;7.23;3.67;;;5.60;99.90;;;;;;5064933;28;20254;-60
2021/12/13 04:56:18;;;;;;;4.13;2.77;;;5.60;99.90;;;;;;5064964;28;20278;-60
2021/12/13 04:58:49;;;;;;;6.53;3.63;;;5.60;99.90;;;;;;5065662;28;20198;-60
2021/12/13 05:01:18;;;;;;;6.77;3.97;;;5.60;99.90;;;;;;5065112;28;20301;-60
2021/12/13 05:03:48;;;;;;;4.83;3.37;;;5.60;99.90;;;;;;5065191;28;20269;-60
2021/12/13 05:06:18;;;;;;;8.30;3.47;;;5.60;99.90;;;;;;5065542;28;20227;-60
2021/12/13 05:08:47;;;;;;;4.67;2.77;;;5.50;99.90;;;;;;5065478;28;20284;-60
2021/12/13 05:11:15;;;;;;;7.33;3.10;;;5.60;99.90;;;;;;5064967;28;20206;-60
2021/12/13 05:13:49;;;;;;;5.23;3.07;;;5.60;99.90;;;;;;5063994;28;20264;-60
2021/12/13 05:16:18;;;;;;;6.77;3.57;;;5.60;99.90;;;;;;5064423;28;20202;-60
2021/12/13 05:18:48;;;;;;;7.33;3.57;;;5.50;99.90;;;;;;5064312;28;20672;-60
2021/12/13 05:21:18;;;;;;;5.23;3.50;;;5.60;99.90;;;;;;5064460;28;20293;-60
2021/12/13 05:23:51;;;;;;;7.43;2.70;;;5.60;99.90;;;;;;5062399;28;20213;-60
2021/12/13 05:26:34;;;;;;;4.57;3.43;;;5.60;99.90;;;;;;5063848;28;20201;-60
2021/12/13 05:29:04;;;;;;;6.50;3.53;;;5.50;99.90;;;;;;5064742;28;20213;-60
2021/12/13 05:31:32;;;;;;;7.57;3.87;;;5.50;99.90;;;;;;5063382;28;20236;-60
2021/12/13 05:34:05;;;;;;;8.27;3.90;;;5.50;99.90;;;;;;5064081;28;20269;-60
2021/12/13 05:36:35;;;;;;;7.63;3.80;;;5.50;99.90;;;;;;5062740;28;20357;-60
2021/12/13 05:39:10;;;;;;;5.47;3.30;;;5.50;99.90;;;;;;5064104;28;20313;-60
2021/12/13 05:41:37;;;;;;;6.70;3.43;;;5.50;99.90;;;;;;5063567;28;20268;-62
2021/12/13 05:44:08;;;;;;;6.67;4.00;;;5.50;99.90;;;;;;5064742;28;20301;-61
2021/12/13 05:46:38;;;;;;;5.73;3.13;;;5.50;99.90;;;;;;5064467;28;20204;-61
2021/12/13 05:49:08;;;;;;;4.47;2.97;;;5.40;99.90;;;;;;5064380;28;20212;-60
2021/12/13 05:51:38;;;;;;;7.27;4.57;;;5.40;99.90;;;;;;5064101;28;20236;-60
2021/12/13 05:54:08;;;;;;;5.87;3.23;;;5.50;99.90;;;;;;5064334;28;20288;-60
2021/12/13 05:56:38;;;;;;;5.67;3.93;;;5.50;99.90;;;;;;5063710;28;20198;-60
2021/12/13 05:59:13;;;;;;;5.93;4.00;;;5.40;99.90;;;;;;5064856;28;20253;-60
2021/12/13 06:01:54;;;;;;;6.33;3.93;;;5.40;99.90;;;;;;5064314;28;20205;-60
2021/12/13 06:04:36;;;;;;;6.53;3.90;;;5.50;99.90;;;;;;5054047;28;20253;-60
2021/12/13 06:07:18;;;;;;;5.60;4.00;;;5.50;99.90;;;;;;5057095;28;20189;-60
2021/12/13 06:10:04;;;;;;;8.17;3.90;;;5.40;99.90;;;;;;5063958;28;20263;-59
2021/12/13 06:12:36;;;;;;;8.03;5.37;;;5.40;99.90;;;;;;5063528;28;20221;-60
2021/12/13 06:15:24;;;;;;;7.57;4.47;;;5.30;99.90;;;;;;5064296;28;20224;-60
2021/12/13 06:17:58;;;;;;;8.00;4.47;;;5.30;99.90;;;;;;5064354;28;20202;-61
2021/12/13 06:20:29;;;;;;;8.47;4.57;;;5.30;99.90;;;;;;5063217;28;20296;-61
2021/12/13 06:23:07;;;;;;;12.70;4.57;;;5.30;99.90;;;;;;5063922;28;20256;-62
2021/12/13 06:25:35;;;;;;;6.57;4.20;;;5.30;99.90;;;;;;5066366;28;20192;-62
2021/12/13 06:28:02;;;;;;;4.57;3.40;;;5.30;99.90;;;;;;5067143;28;20207;-62
2021/12/13 06:30:33;;;;;;;6.03;3.93;;;5.30;99.90;;;;;;5067610;28;20261;-62
2021/12/13 06:33:02;;;;;;;7.53;4.10;;;5.30;99.90;;;;;;5067314;28;20265;-63
2021/12/13 06:35:37;;;;;;;4.57;3.90;;;5.30;99.90;;;;;;5067344;28;20205;-61
2021/12/13 06:38:46;;;;;;;7.77;4.00;;;5.30;99.90;;;;;;5067830;28;20263;-63
2021/12/13 06:41:20;;;;;;;8.83;4.30;;;5.30;99.90;;;;;;5005515;28;20718;-64
2021/12/13 06:43:50;;;;;;;5.30;3.70;;;5.30;99.90;;;;;;5006219;28;20203;-63
2021/12/13 06:46:39;;;;;;;7.00;3.63;;;5.20;99.90;;;;;;5005939;28;20196;-64
2021/12/13 06:49:22;;;;;;;6.00;4.00;;;5.30;99.90;;;;;;5005444;28;20208;-63
2021/12/13 06:51:54;;;;;;;6.07;3.93;;;5.30;99.90;;;;;;5005388;28;20224;-63
2021/12/13 06:54:30;;;;;;;6.43;3.20;;;5.20;99.90;;;;;;5005374;28;20192;-59
2021/12/13 06:57:00;;;;;;;4.70;2.57;;;5.30;99.90;;;;;;5003955;28;20286;-61
2021/12/13 06:59:31;;;;;;;4.80;3.57;;;5.30;99.90;;;;;;5002069;28;20211;-61
2021/12/13 07:02:13;;;;;;;3.53;2.57;;;5.30;99.90;;;;;;5005246;28;20204;-61
2021/12/13 07:04:54;;;;;;;3.53;2.60;;;5.30;99.90;;;;;;5005141;28;20200;-63
2021/12/13 07:07:25;;;;;;;3.70;2.07;;;5.30;99.90;;;;;;5004559;28;20188;-61
2021/12/13 07:09:55;;;;;;;3.43;1.93;;;5.20;99.90;;;;;;5003035;28;20224;-61
2021/12/13 07:12:22;;;;;;;1.57;1.30;;;5.20;99.90;;;;;;5004551;28;20200;-61
2021/12/13 07:14:50;;;;;;;1.53;1.03;;;5.20;99.90;;;;;;5002590;28;20299;-63
2021/12/13 07:17:22;;;;;;;1.47;1.27;;;5.20;99.90;;;;;;5018085;28;20218;-61
2021/12/13 07:19:52;;;;;;;1.20;1.10;;;5.20;99.90;;;;;;5026397;28;20203;-61
2021/12/13 07:22:21;;;;;;;0.70;0.70;;;5.20;99.90;;;;;;5023962;28;20199;-61
2021/12/13 07:24:52;;;;;;;1.27;1.00;;;5.10;99.90;;;;;;5026320;28;20202;-62
2021/12/13 07:27:21;;;;;;;0.50;0.50;;;5.00;99.90;;;;;;5023081;28;20680;-61
2021/12/13 07:29:52;;;;;;;0.73;0.70;;;5.00;99.90;;;;;;5026654;28;20210;-61
2021/12/13 07:32:26;;;;;;;0.53;0.50;;;4.90;99.90;;;;;;5023537;28;20237;-61
2021/12/13 07:35:05;;;;;;;1.80;0.70;;;5.00;99.90;;;;;;5025760;28;20265;-61
2021/12/13 07:37:46;;;;;;;0.57;0.50;;;5.00;99.90;;;;;;5026460;28;20191;-61
2021/12/13 07:40:26;;;;;;;0.60;0.60;;;5.00;99.90;;;;;;5025154;28;20231;-60
2021/12/13 07:42:59;;;;;;;0.57;0.57;;;5.00;99.90;;;;;;5026240;28;20719;-62
2021/12/13 07:45:30;;;;;;;2.20;1.43;;;5.00;99.90;;;;;;5026231;28;20183;-62
2021/12/13 07:48:04;;;;;;;0.73;0.73;;;5.10;99.90;;;;;;5007462;28;20236;-63
2021/12/13 07:50:32;;;;;;;3.00;2.00;;;5.20;99.90;;;;;;5006465;28;20211;-64
2021/12/13 07:53:02;;;;;;;5.33;2.73;;;5.30;99.90;;;;;;5044811;28;20238;-62
2021/12/13 07:55:31;;;;;;;5.83;3.30;;;5.30;99.90;;;;;;5045438;28;20242;-63
2021/12/13 07:58:02;;;;;;;8.23;3.67;;;5.30;99.90;;;;;;5051046;28;20257;-63
2021/12/13 08:00:34;;;;;;;5.70;3.47;;;5.30;99.90;;;;;;5062425;28;20280;-60
2021/12/13 08:03:07;;;;;;;6.17;4.00;;;5.30;99.90;;;;;;5066178;28;20212;-63
2021/12/13 08:05:44;;;;;;;7.53;4.50;;;5.30;99.90;;;;;;5065609;28;20382;-61
2021/12/13 08:08:20;;;;;;;8.87;4.67;;;5.30;99.90;;;;;;5065698;28;20644;-62
2021/12/13 08:10:51;;;;;;;9.23;4.27;;;5.20;99.90;;;;;;5065674;28;20205;-61
2021/12/13 08:13:21;;;;;;;7.80;4.53;;;5.20;99.90;;;;;;5065255;28;20193;-62
2021/12/13 08:15:51;;;;;;;9.23;5.00;;;5.20;99.90;;;;;;5065711;28;20313;-61
2021/12/13 08:18:30;;;;;;;7.80;4.30;;;5.20;99.90;;;;;;5065054;28;20281;-61
2021/12/13 08:21:01;;;;;;;9.97;6.03;;;5.20;99.90;;;;;;5063828;28;20710;-59
2021/12/13 08:23:35;;;;;;;6.73;3.63;;;5.20;99.90;;;;;;5061402;28;20284;-59
2021/12/13 08:26:06;;;;;;;13.27;6.20;;;5.30;99.90;;;;;;5065514;28;20201;-60
2021/12/13 08:28:37;;;;;;;6.70;4.33;;;5.30;99.90;;;;;;5064752;28;20225;-60
2021/12/13 08:31:07;;;;;;;10.17;4.23;;;5.30;99.90;;;;;;5065254;28;20645;-59
2021/12/13 08:33:42;;;;;;;8.80;4.00;;;5.40;99.90;;;;;;5064533;28;20209;-59
2021/12/13 08:36:13;;;;;;;7.17;4.07;;;5.40;99.90;;;;;;5063017;28;20237;-59
2021/12/13 08:38:47;;;;;;;50.80;15.30;;;5.40;99.90;;;;;;5065083;28;20652;-61
2021/12/13 08:41:22;;;;;;;60.30;22.93;;;5.50;99.90;;;;;;5062684;28;20614;-60
2021/12/13 08:43:55;;;;;;;23.30;10.10;;;5.60;99.90;;;;;;5062680;28;20188;-60
2021/12/13 08:46:41;;;;;;;12.60;6.80;;;5.60;99.90;;;;;;5064121;28;20218;-60
2021/12/13 08:49:21;;;;;;;8.57;4.83;;;5.60;99.90;;;;;;5062271;28;20207;-61
2021/12/13 08:52:01;;;;;;;6.77;4.47;;;5.60;99.90;;;;;;5066041;28;20213;-60
2021/12/13 08:54:49;;;;;;;10.30;5.87;;;5.60;99.90;;;;;;5073060;28;20186;-61
2021/12/13 08:57:38;;;;;;;8.33;4.20;;;5.70;99.90;;;;;;5070031;28;20190;-60
2021/12/13 09:00:19;;;;;;;8.73;4.57;;;5.70;99.90;;;;;;5068302;28;20213;-60
2021/12/13 09:02:51;;;;;;;8.20;4.37;;;5.70;99.90;;;;;;5072371;28;20194;-60
2021/12/13 09:05:25;;;;;;;7.27;4.63;;;5.70;99.90;;;;;;5070927;28;20201;-60
2021/12/13 09:07:55;;;;;;;5.73;4.20;;;5.70;99.90;;;;;;5070895;28;20177;-60
2021/12/13 09:10:37;;;;;;;5.03;3.40;;;5.80;99.90;;;;;;5065380;28;20231;-61
2021/12/13 09:13:04;;;;;;;10.30;6.97;;;5.80;99.90;;;;;;5071649;28;20197;-61
2021/12/13 09:15:34;;;;;;;8.23;5.03;;;5.80;99.90;;;;;;5072506;28;20294;-60
2021/12/13 09:18:02;;;;;;;7.27;4.50;;;5.90;99.90;;;;;;5072743;28;20205;-61
2021/12/13 09:20:34;;;;;;;6.80;3.57;;;5.90;99.90;;;;;;5071683;28;20209;-61
2021/12/13 09:23:11;;;;;;;6.57;4.00;;;5.90;99.90;;;;;;5068942;28;20205;-61
2021/12/13 09:25:41;;;;;;;8.93;4.27;;;6.00;99.90;;;;;;5064506;28;20186;-61
2021/12/13 09:28:12;;;;;;;152.20;71.93;;;6.00;99.90;;;;;;5063680;28;20220;-60
2021/12/13 09:30:43;;;;;;;155.83;75.73;;;6.10;99.90;;;;;;5064348;28;20198;-63
2021/12/13 09:33:17;;;;;;;106.47;53.90;;;6.10;99.90;;;;;;5062109;28;20205;-64
2021/12/13 09:35:52;;;;;;;63.30;37.07;;;6.10;99.90;;;;;;5063832;28;20285;-63
2021/12/13 09:38:41;;;;;;;14.47;9.83;;;6.10;99.90;;;;;;5063894;28;20490;-63
2021/12/13 09:41:15;;;;;;;6.50;5.10;;;6.20;99.90;;;;;;5064623;28;20202;-62
2021/12/13 09:43:48;;;;;;;7.20;4.50;;;6.20;99.90;;;;;;5063974;28;20212;-63
2021/12/13 09:46:19;;;;;;;9.17;5.03;;;6.20;99.90;;;;;;5063898;28;20274;-61
2021/12/13 09:48:49;;;;;;;9.70;6.20;;;6.20;99.90;;;;;;5063941;28;20638;-60
2021/12/13 09:51:22;;;;;;;7.07;4.27;;;6.20;99.90;;;;;;5064038;28;20696;-60
2021/12/13 09:53:53;;;;;;;5.43;3.33;;;6.20;99.90;;;;;;5064364;28;20212;-61
2021/12/13 09:56:22;;;;;;;7.27;3.37;;;6.20;99.90;;;;;;5064035;28;20249;-59
2021/12/13 09:58:52;;;;;;;7.50;3.40;;;6.20;99.90;;;;;;5068160;28;20198;-61
2021/12/13 10:01:25;;;;;;;11.80;3.73;;;6.30;99.90;;;;;;5067245;28;20221;-60
2021/12/13 10:03:56;;;;;;;5.23;3.17;;;6.30;99.90;;;;;;5070330;28;20198;-61
2021/12/13 10:06:28;;;;;;;5.07;2.97;;;6.50;99.90;;;;;;5070975;28;20198;-60
2021/12/13 10:08:59;;;;;;;4.07;2.97;;;6.50;99.90;;;;;;5071124;28;20212;-61
2021/12/13 10:11:30;;;;;;;3.53;2.60;;;6.60;99.90;;;;;;5069961;28;20202;-61
2021/12/13 10:13:59;;;;;;;3.23;2.10;;;6.70;99.90;;;;;;5070845;28;20181;-60
2021/12/13 10:16:33;;;;;;;7.10;3.47;;;6.70;99.90;;;;;;5069975;28;20217;-61
2021/12/13 10:19:12;;;;;;;;;;;;;;;;;;;;;
2021/12/13 10:21:44;;;;;;;6.10;3.00;;;6.80;99.90;;;;;;5068523;28;20241;-61
2021/12/13 10:24:15;;;;;;;8.33;4.77;;;6.90;99.90;;;;;;5070660;28;20265;-61
2021/12/13 10:26:45;;;;;;;8.97;4.97;;;6.90;99.90;;;;;;5069819;28;20276;-62
2021/12/13 10:29:14;;;;;;;8.07;3.67;;;6.90;99.90;;;;;;5070550;28;20204;-60
2021/12/13 10:31:45;;;;;;;8.70;4.70;;;7.00;99.90;;;;;;5070136;28;20201;-61
2021/12/13 10:34:16;;;;;;;4.47;3.40;;;7.00;99.90;;;;;;5070215;28;20202;-61
2021/12/13 10:36:47;;;;;;;7.50;5.30;;;7.10;99.90;;;;;;5070851;28;20220;-62
2021/12/13 10:39:18;;;;;;;6.50;3.57;;;7.10;99.90;;;;;;5070942;28;20201;-60
2021/12/13 10:41:49;;;;;;;9.17;7.67;;;7.10;99.90;;;;;;5069869;28;20684;-62
2021/12/13 10:44:26;;;;;;;8.63;5.93;;;7.10;99.90;;;;;;5071127;28;20190;-61
2021/12/13 10:46:54;;;;;;;7.00;4.27;;;7.20;99.90;;;;;;5070708;28;20197;-61
2021/12/13 10:49:24;;;;;;;4.53;2.73;;;7.20;99.90;;;;;;5069020;28;20205;-60
2021/12/13 10:51:58;;;;;;;5.93;2.77;;;7.20;99.90;;;;;;5069033;28;20239;-61
2021/12/13 10:54:27;;;;;;;4.33;2.80;;;7.20;99.90;;;;;;5068617;28;20201;-61
2021/12/13 10:56:58;;;;;;;4.40;2.87;;;7.20;99.90;;;;;;5069630;28;20213;-61
2021/12/13 10:59:29;;;;;;;5.70;3.17;;;7.20;99.90;;;;;;5070711;28;20220;-60
2021/12/13 11:02:01;;;;;;;7.47;4.60;;;7.20;99.90;;;;;;5070146;28;20251;-61
2021/12/13 11:04:33;;;;;;;7.50;4.33;;;7.20;99.90;;;;;;5070370;28;20210;-61
2021/12/13 11:07:02;;;;;;;8.73;3.93;;;7.20;99.90;;;;;;5069528;28;20190;-60
2021/12/13 11:09:29;;;;;;;6.10;5.40;;;7.20;99.90;;;;;;5067848;28;20193;-61
2021/12/13 11:12:02;;;;;;;6.57;4.23;;;7.30;99.90;;;;;;5065026;28;20668;-61
2021/12/13 11:14:30;;;;;;;5.87;3.37;;;7.30;99.90;;;;;;5065317;28;20341;-60
2021/12/13 11:17:00;;;;;;;5.80;4.07;;;7.40;99.90;;;;;;5066516;28;20233;-61
2021/12/13 11:19:31;;;;;;;5.73;3.20;;;7.40;99.90;;;;;;5064719;28;20232;-60
2021/12/13 11:22:03;;;;;;;5.07;3.10;;;7.40;99.90;;;;;;5066516;28;20220;-60
2021/12/13 11:24:33;;;;;;;5.03;3.43;;;7.30;99.90;;;;;;5066951;28;20182;-61
2021/12/13 11:27:03;;;;;;;6.47;3.67;;;7.30;99.90;;;;;;5066211;28;20224;-61
2021/12/13 11:29:32;;;;;;;5.90;3.33;;;7.30;99.90;;;;;;5066325;28;20198;-61
2021/12/13 11:32:50;;;;;;;6.67;3.93;;;7.30;99.90;;;;;;5065880;28;20221;-59
2021/12/13 11:36:03;;;;;;;5.00;2.67;;;7.30;99.90;;;;;;5065650;28;20205;-61
2021/12/13 11:39:12;;;;;;;5.93;4.10;;;7.40;99.90;;;;;;4985865;28;20211;-61
2021/12/13 11:42:05;;;;;;;7.30;3.57;;;7.40;99.90;;;;;;4926740;29;20214;-60
2021/12/13 11:44:47;;;;;;;6.47;3.10;;;7.50;99.90;;;;;;4947135;29;20709;-62
2021/12/13 11:48:00;;;;;;;5.17;2.90;;;7.50;99.90;;;;;;4946851;29;20198;-60
2021/12/13 11:50:56;;;;;;;6.50;4.03;;;7.60;99.90;;;;;;4871092;29;20223;-60
2021/12/13 11:53:50;;;;;;;7.43;4.07;;;7.60;99.90;;;;;;4871093;29;20337;-61
2021/12/13 11:56:47;;;;;;;4.97;2.77;;;7.70;99.90;;;;;;4867550;29;20720;-62
2021/12/13 11:59:35;;;;;;;5.47;3.57;;;7.80;99.90;;;;;;4871541;29;20208;-61
2021/12/13 12:02:22;;;;;;;6.80;3.63;;;7.80;99.90;;;;;;4869795;29;20205;-61
2021/12/13 12:05:34;;;;;;;5.27;3.10;;;7.80;99.90;;;;;;4870862;29;20220;-60
2021/12/13 12:08:37;;;;;;;5.27;2.97;;;7.80;99.90;;;;;;4871677;29;20216;-60
2021/12/13 12:11:44;;;;;;;5.90;3.33;;;7.90;99.90;;;;;;4868224;29;20204;-60
2021/12/13 12:14:13;;;;;;;4.77;3.13;;;7.90;99.90;;;;;;4895761;29;20195;-59
2021/12/13 12:16:44;;;;;;;6.10;3.93;;;7.90;99.90;;;;;;4936699;28;20583;-59
2021/12/13 12:19:16;;;;;;;7.83;3.60;;;7.90;99.90;;;;;;4981562;28;20209;-59
2021/12/13 12:21:48;;;;;;;8.93;4.33;;;7.90;99.90;;;;;;4982446;28;20201;-58
2021/12/13 12:24:19;;;;;;;7.40;4.73;;;7.80;99.90;;;;;;5010615;28;20201;-59
2021/12/13 12:26:51;;;;;;;17.70;7.80;;;7.70;99.90;;;;;;5064718;28;20212;-59
2021/12/13 12:29:20;;;;;;;9.80;4.73;;;7.70;99.90;;;;;;5065364;28;20218;-59
2021/12/13 12:31:57;;;;;;;10.60;4.77;;;7.70;99.90;;;;;;5062197;28;20236;-59
2021/12/13 12:34:24;;;;;;;10.50;4.10;;;7.60;99.90;;;;;;5064886;28;20303;-59
2021/12/13 12:37:53;;;;;;;9.23;4.73;;;7.40;99.90;;;;;;5065492;28;20622;-59
2021/12/13 12:40:27;;;;;;;9.77;4.57;;;7.30;99.90;;;;;;5064514;28;20240;-61
2021/12/13 12:42:55;;;;;;;7.67;4.73;;;7.30;99.90;;;;;;5063034;28;20216;-59
2021/12/13 12:45:28;;;;;;;5.57;3.67;;;7.30;99.90;;;;;;5065445;28;20193;-59
2021/12/13 12:48:29;;;;;;;9.17;4.50;;;7.20;99.90;;;;;;5065474;28;20273;-61
2021/12/13 12:51:07;;;;;;;7.13;4.20;;;7.20;99.90;;;;;;5064615;28;20273;-59
2021/12/13 12:53:42;;;;;;;11.03;4.13;;;7.20;99.90;;;;;;5063015;28;20664;-58
2021/12/13 12:56:12;;;;;;;9.47;3.70;;;7.20;99.90;;;;;;5065157;28;20513;-58
2021/12/13 12:58:51;;;;;;;8.07;4.27;;;7.10;99.90;;;;;;5064002;28;20182;-58
2021/12/13 13:01:20;;;;;;;6.73;3.87;;;7.10;99.90;;;;;;5062027;28;20320;-58
2021/12/13 13:03:49;;;;;;;5.03;3.23;;;7.10;99.90;;;;;;5045067;28;20198;-58
2021/12/13 13:06:20;;;;;;;9.60;4.20;;;7.10;99.90;;;;;;5063432;28;20202;-59
2021/12/13 13:08:50;;;;;;;62.83;25.53;;;7.10;99.90;;;;;;5061624;28;20186;-58
2021/12/13 13:11:30;;;;;;;9.63;4.43;;;7.10;99.90;;;;;;5062984;28;20202;-57
2021/12/13 13:14:03;;;;;;;11.27;5.60;;;7.10;99.90;;;;;;5062885;28;20225;-58
2021/12/13 13:16:33;;;;;;;10.23;4.83;;;7.10;99.90;;;;;;5060988;28;20747;-58
2021/12/13 13:19:03;;;;;;;11.00;4.70;;;7.10;99.90;;;;;;5062404;28;20203;-58
2021/12/13 13:21:31;;;;;;;7.33;4.30;;;7.10;99.90;;;;;;5061067;28;20209;-58
2021/12/13 13:24:01;;;;;;;7.70;4.07;;;7.10;99.90;;;;;;5062231;28;20202;-58
2021/12/13 13:26:33;;;;;;;9.90;5.07;;;7.10;99.90;;;;;;5060349;28;20182;-57
2021/12/13 13:29:06;;;;;;;6.80;3.93;;;7.10;99.90;;;;;;5063463;28;20248;-58
2021/12/13 13:31:38;;;;;;;10.63;4.33;;;7.10;99.90;;;;;;5061504;28;20197;-58
2021/12/13 13:34:09;;;;;;;11.27;5.43;;;7.10;99.90;;;;;;5062087;28;20216;-58
2021/12/13 13:36:39;;;;;;;9.87;5.37;;;7.10;99.90;;;;;;5063271;28;20222;-57
2021/12/13 13:39:15;;;;;;;12.13;6.80;;;7.10;99.90;;;;;;5062890;28;20240;-57